METAR Data
IDs: Format: Raw Decoded Include TAF

Data at: 0128 UTC 05 Jul 2022

KPWT 050056Z AUTO 26006KT 10SM SCT038 21/12 A2997 RMK AO2 SLP152 T02110117
KPWT 042356Z AUTO 31003KT 10SM FEW029 19/12 A2998 RMK AO2 SLP155 6//// T01940122 10194 20150 58007
KPWT 042256Z AUTO 30004KT 10SM FEW027 OVC034 19/12 A2999 RMK AO2 SLP157 T01890122
KPWT 042241Z AUTO 26005KT 10SM SCT027 OVC032 18/12 A2999 RMK AO2
KPWT 042232Z AUTO 24007KT 10SM BKN026 BKN032 18/12 A2999 RMK AO2
KPWT 042156Z AUTO VRB03KT 10SM BKN030 17/12 A2999 RMK AO2 RAE23 SLP159 P0000 T01720117
KPWT 042148Z AUTO 22004KT 10SM SCT023 OVC030 17/12 A3000 RMK AO2 RAE23 P0000
KPWT 042127Z AUTO 23005KT 10SM BKN021 OVC030 16/12 A3000 RMK AO2 RAE23 P0000
KPWT 042105Z AUTO VRB04KT 10SM SCT023 OVC032 16/12 A3000 RMK AO2 RAE04 P0000
KPWT 042056Z AUTO 22005KT 10SM -RA BKN023 BKN028 BKN032 16/12 A3000 RMK AO2 RAB41 SLP161 P0000 60000 T01610122 53006
KPWT 041956Z AUTO 22005KT 10SM BKN024 OVC029 15/12 A2999 RMK AO2 SLP159 T01500117
KPWT 041856Z AUTO 17006KT 10SM OVC026 16/11 A2998 RMK AO2 SLP156 T01560111
KPWT 041756Z AUTO 20006KT 10SM FEW019 OVC026 15/11 A2998 RMK AO2 SLP155 T01500111 10150 20117 51001
KPWT 041656Z AUTO 19005KT 10SM FEW015 OVC026 14/11 A2998 RMK AO2 SLP156 T01390111
KPWT 041556Z AUTO 19006KT 10SM FEW012 OVC028 14/11 A2998 RMK AO2 SLP155 T01390111
KPWT 041546Z AUTO 19004KT 10SM FEW012 OVC028 14/12 A2998 RMK AO2
KPWT 041516Z AUTO 22006KT 10SM BKN012 OVC028 13/11 A2998 RMK AO2
KPWT 041456Z AUTO 19004KT 10SM FEW010 OVC028 13/12 A2998 RMK AO2 SLP154 T01330117 53004
KPWT 041356Z AUTO 19003KT 10SM OVC026 12/11 A2997 RMK AO2 SLP153 T01220111
KPWT 041256Z AUTO 00000KT 10SM OVC026 12/11 A2997 RMK AO2 SLP151 T01170111
KPWT 041156Z AUTO 00000KT 10SM OVC026 12/11 A2996 RMK AO2 RAB11E34 SLP150 P0000 60000 70002 T01170111 10128 20111 53004
KPWT 041056Z AUTO 19004KT 9SM SCT011 BKN020 OVC025 12/11 A2996 RMK AO2 SLP149 T01170106
KPWT 040956Z AUTO 20003KT 10SM BKN011 12/11 A2995 RMK AO2 SLP146 T01170106
KPWT 040945Z AUTO 20003KT 10SM BKN011 BKN024 12/11 A2995 RMK AO2
KPWT 040856Z AUTO 19003KT 10SM BKN024 12/11 A2995 RMK AO2 SLP146 T01220111 57002
KPWT 040756Z AUTO 00000KT 10SM OVC024 12/11 A2995 RMK AO2 SLP147 T01220111 401560122
KPWT 040656Z AUTO 00000KT 10SM OVC026 12/11 A2996 RMK AO2 SLP148 T01220111
KPWT 040556Z AUTO 00000KT 10SM OVC020 13/12 A2996 RMK AO2 SLP148 60002 T01280117 10156 20128 50003
KPWT 040456Z AUTO 17003KT 10SM OVC016 13/12 A2996 RMK AO2 SLP150 T01280122
KPWT 040356Z AUTO 00000KT 10SM OVC018 13/13 A2996 RMK AO2 RAE30 SLP149 P0000 T01330128
KPWT 040256Z AUTO 00000KT 4SM RA BR OVC020 13/12 A2995 RMK AO2 RAB33 SLP146 P0002 60002 T01330122 53001
KPWT 040156Z AUTO 18004KT 10SM OVC020 14/11 A2995 RMK AO2 SLP145 T01440111
KPWT 040056Z AUTO 20005KT 10SM OVC024 15/11 A2994 RMK AO2 SLP142 T01500106
KPWT 032356Z AUTO 21006KT 10SM OVC024 15/11 A2995 RMK AO2 SLP144 T01500106 10150 20128 58001
KPWT 032256Z AUTO 20006KT 10SM OVC022 14/11 A2996 RMK AO2 SLP147 T01440106
KPWT 032156Z AUTO 20007KT 10SM OVC020 14/11 A2995 RMK AO2 SLP146 T01440106
KPWT 032056Z AUTO 20007KT 10SM OVC018 14/11 A2995 RMK AO2 SLP144 T01390111 53003
KPWT 031956Z AUTO VRB05KT 10SM OVC016 14/11 A2994 RMK AO2 SLP143 T01390111
KPWT 031923Z AUTO 20008KT 10SM OVC016 14/11 A2994 RMK AO2
KPWT 031856Z AUTO 19007KT 10SM OVC014 14/11 A2994 RMK AO2 SLP140 T01390111
KPWT 031756Z AUTO 19007KT 160V220 10SM OVC012 13/11 A2994 RMK AO2 SLP141 60000 T01280111 10133 20122 53003
KPWT 031656Z AUTO 21003KT 10SM OVC010 13/11 A2993 RMK AO2 RAE00 SLP138 P0000 T01280111
KPWT 031556Z AUTO 19004KT 10SM -RA OVC010 12/11 A2993 RMK AO2 SLP136 P0000 T01220111
KPWT 031542Z AUTO 19003KT 10SM -RA OVC010 12/11 A2993 RMK AO2 P0000
KPWT 031456Z AUTO VRB03KT 8SM -RA OVC008 12/11 A2993 RMK AO2 RAB52 SLP138 P0000 60000 T01220111 53002
KPWT 031409Z AUTO 21004KT 10SM OVC008 12/11 A2993 RMK AO2 CIG 006V010
KPWT 031356Z AUTO 20007KT 10SM OVC010 12/11 A2993 RMK AO2 SLP137 T01220111